sensor_id;sensor_type;location;lat;lon;timestamp;temperature;humidity
16392;DHT22;8305;-33.882;151.134;2022-11-15T00:01:32;24.20;99.90
16392;DHT22;8305;-33.882;151.134;2022-11-15T00:04:05;23.80;99.90
16392;DHT22;8305;-33.882;151.134;2022-11-15T00:06:35;23.20;99.90
16392;DHT22;8305;-33.882;151.134;2022-11-15T00:09:06;23.00;99.90
16392;DHT22;8305;-33.882;151.134;2022-11-15T00:11:40;22.80;99.90
16392;DHT22;8305;-33.882;151.134;2022-11-15T00:14:13;22.60;99.90
16392;DHT22;8305;-33.882;151.134;2022-11-15T00:16:43;22.60;99.90
16392;DHT22;8305;-33.882;151.134;2022-11-15T00:19:14;22.70;99.90
16392;DHT22;8305;-33.882;151.134;2022-11-15T00:21:46;23.10;99.90
16392;DHT22;8305;-33.882;151.134;2022-11-15T00:24:17;23.20;99.90
16392;DHT22;8305;-33.882;151.134;2022-11-15T00:26:47;23.10;99.90
16392;DHT22;8305;-33.882;151.134;2022-11-15T00:29:20;23.00;99.90
16392;DHT22;8305;-33.882;151.134;2022-11-15T00:31:54;22.80;99.90
16392;DHT22;8305;-33.882;151.134;2022-11-15T00:34:25;22.80;99.90
16392;DHT22;8305;-33.882;151.134;2022-11-15T00:36:59;22.70;99.90
16392;DHT22;8305;-33.882;151.134;2022-11-15T00:39:30;22.60;99.90
16392;DHT22;8305;-33.882;151.134;2022-11-15T00:42:00;22.60;99.90
16392;DHT22;8305;-33.882;151.134;2022-11-15T00:44:33;22.50;99.90
16392;DHT22;8305;-33.882;151.134;2022-11-15T00:47:04;22.40;99.90
16392;DHT22;8305;-33.882;151.134;2022-11-15T00:49:35;22.30;99.90
16392;DHT22;8305;-33.882;151.134;2022-11-15T00:52:05;22.30;99.90
16392;DHT22;8305;-33.882;151.134;2022-11-15T00:54:36;22.30;99.90
16392;DHT22;8305;-33.882;151.134;2022-11-15T00:57:07;22.10;99.90
16392;DHT22;8305;-33.882;151.134;2022-11-15T00:59:40;22.00;99.90
16392;DHT22;8305;-33.882;151.134;2022-11-15T01:02:11;21.90;99.90
16392;DHT22;8305;-33.882;151.134;2022-11-15T01:04:42;21.90;99.90
16392;DHT22;8305;-33.882;151.134;2022-11-15T01:07:12;22.10;99.90
16392;DHT22;8305;-33.882;151.134;2022-11-15T01:09:43;22.20;99.90
16392;DHT22;8305;-33.882;151.134;2022-11-15T01:12:14;22.60;99.90
16392;DHT22;8305;-33.882;151.134;2022-11-15T01:14:47;22.90;99.90
16392;DHT22;8305;-33.882;151.134;2022-11-15T01:17:17;23.00;99.90
16392;DHT22;8305;-33.882;151.134;2022-11-15T01:19:49;23.00;99.90
16392;DHT22;8305;-33.882;151.134;2022-11-15T01:22:20;23.00;99.90
16392;DHT22;8305;-33.882;151.134;2022-11-15T01:24:51;22.90;99.90
16392;DHT22;8305;-33.882;151.134;2022-11-15T01:27:21;22.90;99.90
16392;DHT22;8305;-33.882;151.134;2022-11-15T01:29:54;23.20;99.90
16392;DHT22;8305;-33.882;151.134;2022-11-15T01:32:25;23.60;99.90
16392;DHT22;8305;-33.882;151.134;2022-11-15T01:34:56;23.70;99.90
16392;DHT22;8305;-33.882;151.134;2022-11-15T01:37:26;23.60;99.90
16392;DHT22;8305;-33.882;151.134;2022-11-15T01:39:57;23.70;99.90
16392;DHT22;8305;-33.882;151.134;2022-11-15T01:42:28;23.60;99.90
16392;DHT22;8305;-33.882;151.134;2022-11-15T01:45:01;23.60;99.90
16392;DHT22;8305;-33.882;151.134;2022-11-15T01:47:33;23.50;99.90
16392;DHT22;8305;-33.882;151.134;2022-11-15T01:50:08;23.50;99.90
16392;DHT22;8305;-33.882;151.134;2022-11-15T01:52:40;23.60;99.90
16392;DHT22;8305;-33.882;151.134;2022-11-15T01:55:16;23.60;99.90
16392;DHT22;8305;-33.882;151.134;2022-11-15T01:57:50;23.40;99.90
16392;DHT22;8305;-33.882;151.134;2022-11-15T02:00:26;23.20;99.90
16392;DHT22;8305;-33.882;151.134;2022-11-15T02:02:56;23.00;99.90
16392;DHT22;8305;-33.882;151.134;2022-11-15T02:05:27;23.00;99.90
16392;DHT22;8305;-33.882;151.134;2022-11-15T02:08:00;23.20;99.90
16392;DHT22;8305;-33.882;151.134;2022-11-15T02:10:31;23.30;99.90
16392;DHT22;8305;-33.882;151.134;2022-11-15T02:13:03;23.30;99.90
16392;DHT22;8305;-33.882;151.134;2022-11-15T02:15:41;23.20;99.90
16392;DHT22;8305;-33.882;151.134;2022-11-15T02:18:18;23.20;99.90
16392;DHT22;8305;-33.882;151.134;2022-11-15T02:21:05;23.20;99.90
16392;DHT22;8305;-33.882;151.134;2022-11-15T02:27:10;22.80;99.90
16392;DHT22;8305;-33.882;151.134;2022-11-15T02:30:02;22.80;99.90
16392;DHT22;8305;-33.882;151.134;2022-11-15T02:32:40;23.10;99.90
16392;DHT22;8305;-33.882;151.134;2022-11-15T02:35:20;23.30;99.90
16392;DHT22;8305;-33.882;151.134;2022-11-15T02:37:57;23.30;99.90
16392;DHT22;8305;-33.882;151.134;2022-11-15T02:40:35;23.30;99.90
16392;DHT22;8305;-33.882;151.134;2022-11-15T02:43:10;23.50;99.90
16392;DHT22;8305;-33.882;151.134;2022-11-15T02:46:02;23.60;99.90
16392;DHT22;8305;-33.882;151.134;2022-11-15T02:48:36;23.40;99.90
16392;DHT22;8305;-33.882;151.134;2022-11-15T02:51:08;23.20;99.90
16392;DHT22;8305;-33.882;151.134;2022-11-15T02:53:39;23.10;99.90
16392;DHT22;8305;-33.882;151.134;2022-11-15T02:56:11;22.90;99.90
16392;DHT22;8305;-33.882;151.134;2022-11-15T03:01:58;22.80;99.90
16392;DHT22;8305;-33.882;151.134;2022-11-15T03:04:41;22.80;99.90
16392;DHT22;8305;-33.882;151.134;2022-11-15T03:07:18;22.80;99.90
16392;DHT22;8305;-33.882;151.134;2022-11-15T03:09:57;22.80;99.90
16392;DHT22;8305;-33.882;151.134;2022-11-15T03:12:36;22.90;99.90
16392;DHT22;8305;-33.882;151.134;2022-11-15T03:15:09;22.90;99.90
16392;DHT22;8305;-33.882;151.134;2022-11-15T03:17:45;23.10;99.90
16392;DHT22;8305;-33.882;151.134;2022-11-15T03:20:20;23.00;99.90
16392;DHT22;8305;-33.882;151.134;2022-11-15T03:22:51;23.00;99.90
16392;DHT22;8305;-33.882;151.134;2022-11-15T03:25:24;23.20;99.90
16392;DHT22;8305;-33.882;151.134;2022-11-15T03:27:57;23.20;99.90
16392;DHT22;8305;-33.882;151.134;2022-11-15T03:30:30;23.30;99.90
16392;DHT22;8305;-33.882;151.134;2022-11-15T03:33:05;23.20;99.90
16392;DHT22;8305;-33.882;151.134;2022-11-15T03:35:40;23.10;99.90
16392;DHT22;8305;-33.882;151.134;2022-11-15T03:38:22;23.10;99.90
16392;DHT22;8305;-33.882;151.134;2022-11-15T03:40:58;23.00;99.90
16392;DHT22;8305;-33.882;151.134;2022-11-15T03:43:35;23.00;99.90
16392;DHT22;8305;-33.882;151.134;2022-11-15T03:46:11;22.90;99.90
16392;DHT22;8305;-33.882;151.134;2022-11-15T03:48:46;22.80;99.90
16392;DHT22;8305;-33.882;151.134;2022-11-15T03:51:19;22.80;99.90
16392;DHT22;8305;-33.882;151.134;2022-11-15T03:53:50;22.80;99.90
16392;DHT22;8305;-33.882;151.134;2022-11-15T03:56:21;22.80;99.90
16392;DHT22;8305;-33.882;151.134;2022-11-15T03:58:52;22.50;99.90
16392;DHT22;8305;-33.882;151.134;2022-11-15T04:01:23;22.40;99.90
16392;DHT22;8305;-33.882;151.134;2022-11-15T04:03:54;22.20;99.90
16392;DHT22;8305;-33.882;151.134;2022-11-15T04:06:27;22.00;99.90
16392;DHT22;8305;-33.882;151.134;2022-11-15T04:08:57;21.90;99.90
16392;DHT22;8305;-33.882;151.134;2022-11-15T04:11:29;21.90;99.90
16392;DHT22;8305;-33.882;151.134;2022-11-15T04:14:00;21.80;99.90
16392;DHT22;8305;-33.882;151.134;2022-11-15T04:16:31;21.70;99.90
16392;DHT22;8305;-33.882;151.134;2022-11-15T04:19:02;21.70;99.90
16392;DHT22;8305;-33.882;151.134;2022-11-15T04:21:59;21.50;99.90
16392;DHT22;8305;-33.882;151.134;2022-11-15T04:24:54;21.30;99.90
16392;DHT22;8305;-33.882;151.134;2022-11-15T04:27:25;21.10;99.90
16392;DHT22;8305;-33.882;151.134;2022-11-15T04:29:57;21.00;99.90
16392;DHT22;8305;-33.882;151.134;2022-11-15T04:32:28;20.80;99.90
16392;DHT22;8305;-33.882;151.134;2022-11-15T04:34:59;20.80;99.90
16392;DHT22;8305;-33.882;151.134;2022-11-15T04:37:32;20.80;99.90
16392;DHT22;8305;-33.882;151.134;2022-11-15T04:40:03;21.00;99.90
16392;DHT22;8305;-33.882;151.134;2022-11-15T04:42:34;21.30;99.90
16392;DHT22;8305;-33.882;151.134;2022-11-15T04:45:05;21.60;99.90
16392;DHT22;8305;-33.882;151.134;2022-11-15T04:47:36;21.80;99.90
16392;DHT22;8305;-33.882;151.134;2022-11-15T04:50:08;22.10;99.90
16392;DHT22;8305;-33.882;151.134;2022-11-15T04:52:50;22.20;99.90
16392;DHT22;8305;-33.882;151.134;2022-11-15T04:55:21;22.20;99.90
16392;DHT22;8305;-33.882;151.134;2022-11-15T04:57:59;22.20;99.90
16392;DHT22;8305;-33.882;151.134;2022-11-15T05:00:30;22.20;99.90
16392;DHT22;8305;-33.882;151.134;2022-11-15T05:03:01;22.00;99.90
16392;DHT22;8305;-33.882;151.134;2022-11-15T05:05:48;21.90;99.90
16392;DHT22;8305;-33.882;151.134;2022-11-15T05:08:22;21.80;99.90
16392;DHT22;8305;-33.882;151.134;2022-11-15T05:10:52;21.70;99.90
16392;DHT22;8305;-33.882;151.134;2022-11-15T05:13:23;21.90;99.90
16392;DHT22;8305;-33.882;151.134;2022-11-15T05:15:54;22.10;99.90
16392;DHT22;8305;-33.882;151.134;2022-11-15T05:18:25;22.10;99.90
16392;DHT22;8305;-33.882;151.134;2022-11-15T05:20:56;22.20;99.90
16392;DHT22;8305;-33.882;151.134;2022-11-15T05:23:28;22.10;99.90
16392;DHT22;8305;-33.882;151.134;2022-11-15T05:26:00;22.20;99.90
16392;DHT22;8305;-33.882;151.134;2022-11-15T05:28:32;22.30;99.90
16392;DHT22;8305;-33.882;151.134;2022-11-15T05:31:05;22.40;99.90
16392;DHT22;8305;-33.882;151.134;2022-11-15T05:33:36;22.50;99.90
16392;DHT22;8305;-33.882;151.134;2022-11-15T05:36:12;22.50;99.90
16392;DHT22;8305;-33.882;151.134;2022-11-15T05:38:48;22.60;99.90
16392;DHT22;8305;-33.882;151.134;2022-11-15T05:41:22;22.70;99.90
16392;DHT22;8305;-33.882;151.134;2022-11-15T05:43:55;22.70;99.90
16392;DHT22;8305;-33.882;151.134;2022-11-15T05:46:27;22.60;99.90
16392;DHT22;8305;-33.882;151.134;2022-11-15T05:48:59;22.60;99.90
16392;DHT22;8305;-33.882;151.134;2022-11-15T05:51:30;22.60;99.90
16392;DHT22;8305;-33.882;151.134;2022-11-15T05:54:03;22.60;99.90
16392;DHT22;8305;-33.882;151.134;2022-11-15T05:56:34;22.60;99.90
16392;DHT22;8305;-33.882;151.134;2022-11-15T05:59:05;22.40;99.90
16392;DHT22;8305;-33.882;151.134;2022-11-15T06:01:40;22.30;99.90
16392;DHT22;8305;-33.882;151.134;2022-11-15T06:04:11;22.20;99.90
16392;DHT22;8305;-33.882;151.134;2022-11-15T06:06:41;22.10;99.90
16392;DHT22;8305;-33.882;151.134;2022-11-15T06:09:14;22.00;99.90
16392;DHT22;8305;-33.882;151.134;2022-11-15T06:11:45;21.90;99.90
16392;DHT22;8305;-33.882;151.134;2022-11-15T06:14:16;21.80;99.90
16392;DHT22;8305;-33.882;151.134;2022-11-15T06:16:46;21.70;99.90
16392;DHT22;8305;-33.882;151.134;2022-11-15T06:19:17;21.60;99.90
16392;DHT22;8305;-33.882;151.134;2022-11-15T06:21:48;21.50;99.90
16392;DHT22;8305;-33.882;151.134;2022-11-15T06:24:21;21.50;99.90
16392;DHT22;8305;-33.882;151.134;2022-11-15T06:26:52;21.30;99.90
16392;DHT22;8305;-33.882;151.134;2022-11-15T06:29:22;21.20;99.90
16392;DHT22;8305;-33.882;151.134;2022-11-15T06:31:53;21.20;99.90
16392;DHT22;8305;-33.882;151.134;2022-11-15T06:34:24;21.20;99.90
16392;DHT22;8305;-33.882;151.134;2022-11-15T06:36:55;21.20;99.90
16392;DHT22;8305;-33.882;151.134;2022-11-15T06:39:27;21.10;99.90
16392;DHT22;8305;-33.882;151.134;2022-11-15T06:41:59;21.10;99.90
16392;DHT22;8305;-33.882;151.134;2022-11-15T06:44:29;21.10;99.90
16392;DHT22;8305;-33.882;151.134;2022-11-15T06:47:00;21.10;99.90
16392;DHT22;8305;-33.882;151.134;2022-11-15T06:49:31;21.10;99.90
16392;DHT22;8305;-33.882;151.134;2022-11-15T06:52:02;21.00;99.90
16392;DHT22;8305;-33.882;151.134;2022-11-15T06:54:34;21.00;99.90
16392;DHT22;8305;-33.882;151.134;2022-11-15T06:57:06;21.00;99.90
16392;DHT22;8305;-33.882;151.134;2022-11-15T06:59:37;20.90;99.90
16392;DHT22;8305;-33.882;151.134;2022-11-15T07:02:12;20.80;99.90
16392;DHT22;8305;-33.882;151.134;2022-11-15T07:04:43;20.80;99.90
16392;DHT22;8305;-33.882;151.134;2022-11-15T07:07:14;20.70;99.90
16392;DHT22;8305;-33.882;151.134;2022-11-15T07:09:46;20.70;99.90
16392;DHT22;8305;-33.882;151.134;2022-11-15T07:12:17;20.60;99.90
16392;DHT22;8305;-33.882;151.134;2022-11-15T07:14:48;20.60;99.90
16392;DHT22;8305;-33.882;151.134;2022-11-15T07:17:19;20.50;99.90
16392;DHT22;8305;-33.882;151.134;2022-11-15T07:19:50;20.40;99.90
16392;DHT22;8305;-33.882;151.134;2022-11-15T07:22:20;20.40;99.90
16392;DHT22;8305;-33.882;151.134;2022-11-15T07:24:53;20.40;99.90
16392;DHT22;8305;-33.882;151.134;2022-11-15T07:27:24;20.30;99.90
16392;DHT22;8305;-33.882;151.134;2022-11-15T07:29:54;20.30;99.90
16392;DHT22;8305;-33.882;151.134;2022-11-15T07:32:25;20.30;99.90
16392;DHT22;8305;-33.882;151.134;2022-11-15T07:34:56;20.20;99.90
16392;DHT22;8305;-33.882;151.134;2022-11-15T07:37:27;20.10;99.90
16392;DHT22;8305;-33.882;151.134;2022-11-15T07:40:00;20.00;99.90
16392;DHT22;8305;-33.882;151.134;2022-11-15T07:42:32;19.80;99.90
16392;DHT22;8305;-33.882;151.134;2022-11-15T07:45:19;19.70;99.90
16392;DHT22;8305;-33.882;151.134;2022-11-15T07:47:49;19.60;99.90
16392;DHT22;8305;-33.882;151.134;2022-11-15T07:50:20;19.50;99.90
16392;DHT22;8305;-33.882;151.134;2022-11-15T07:52:55;19.50;99.90
16392;DHT22;8305;-33.882;151.134;2022-11-15T07:55:28;19.40;99.90
16392;DHT22;8305;-33.882;151.134;2022-11-15T07:58:03;19.40;99.90
16392;DHT22;8305;-33.882;151.134;2022-11-15T08:00:34;19.30;99.90
16392;DHT22;8305;-33.882;151.134;2022-11-15T08:03:06;19.30;99.90
16392;DHT22;8305;-33.882;151.134;2022-11-15T08:05:38;19.30;99.90
16392;DHT22;8305;-33.882;151.134;2022-11-15T08:08:09;19.30;99.90
16392;DHT22;8305;-33.882;151.134;2022-11-15T08:10:42;19.20;99.90
16392;DHT22;8305;-33.882;151.134;2022-11-15T08:13:14;19.20;99.90
16392;DHT22;8305;-33.882;151.134;2022-11-15T08:15:45;19.10;99.90
16392;DHT22;8305;-33.882;151.134;2022-11-15T08:18:16;19.10;99.90
16392;DHT22;8305;-33.882;151.134;2022-11-15T08:20:47;19.10;99.90
16392;DHT22;8305;-33.882;151.134;2022-11-15T08:23:18;19.00;99.90
16392;DHT22;8305;-33.882;151.134;2022-11-15T08:25:51;19.00;99.90
16392;DHT22;8305;-33.882;151.134;2022-11-15T08:28:22;18.90;99.90
16392;DHT22;8305;-33.882;151.134;2022-11-15T08:30:53;18.90;99.90
16392;DHT22;8305;-33.882;151.134;2022-11-15T08:33:23;18.90;99.90
16392;DHT22;8305;-33.882;151.134;2022-11-15T08:35:57;18.80;99.90
16392;DHT22;8305;-33.882;151.134;2022-11-15T08:38:28;18.80;99.90
16392;DHT22;8305;-33.882;151.134;2022-11-15T08:41:05;18.80;99.90
16392;DHT22;8305;-33.882;151.134;2022-11-15T08:43:36;18.80;99.90
16392;DHT22;8305;-33.882;151.134;2022-11-15T08:46:08;18.80;99.90
16392;DHT22;8305;-33.882;151.134;2022-11-15T08:48:39;18.70;99.90
16392;DHT22;8305;-33.882;151.134;2022-11-15T08:51:10;18.70;99.90
16392;DHT22;8305;-33.882;151.134;2022-11-15T08:53:41;18.70;99.90
16392;DHT22;8305;-33.882;151.134;2022-11-15T08:56:15;18.70;99.90
16392;DHT22;8305;-33.882;151.134;2022-11-15T08:58:45;18.70;99.90
16392;DHT22;8305;-33.882;151.134;2022-11-15T09:01:18;18.70;99.90
16392;DHT22;8305;-33.882;151.134;2022-11-15T09:03:49;18.70;99.90
16392;DHT22;8305;-33.882;151.134;2022-11-15T09:06:21;18.70;99.90
16392;DHT22;8305;-33.882;151.134;2022-11-15T09:08:52;18.60;99.90
16392;DHT22;8305;-33.882;151.134;2022-11-15T09:11:25;18.60;99.90
16392;DHT22;8305;-33.882;151.134;2022-11-15T09:13:56;18.60;99.90
16392;DHT22;8305;-33.882;151.134;2022-11-15T09:16:27;18.60;99.90
16392;DHT22;8305;-33.882;151.134;2022-11-15T09:18:58;18.50;99.90
16392;DHT22;8305;-33.882;151.134;2022-11-15T09:21:29;18.50;99.90
16392;DHT22;8305;-33.882;151.134;2022-11-15T09:24:01;18.50;99.90
16392;DHT22;8305;-33.882;151.134;2022-11-15T09:26:34;18.50;99.90
16392;DHT22;8305;-33.882;151.134;2022-11-15T09:29:06;18.50;99.90
16392;DHT22;8305;-33.882;151.134;2022-11-15T09:31:37;18.50;99.90
16392;DHT22;8305;-33.882;151.134;2022-11-15T09:34:08;18.60;99.90
16392;DHT22;8305;-33.882;151.134;2022-11-15T09:36:39;18.60;99.90
16392;DHT22;8305;-33.882;151.134;2022-11-15T09:39:10;18.60;99.90
16392;DHT22;8305;-33.882;151.134;2022-11-15T09:41:58;18.60;99.90
16392;DHT22;8305;-33.882;151.134;2022-11-15T09:44:42;18.70;99.90
16392;DHT22;8305;-33.882;151.134;2022-11-15T09:47:39;18.70;99.90
16392;DHT22;8305;-33.882;151.134;2022-11-15T09:50:15;18.70;99.90
16392;DHT22;8305;-33.882;151.134;2022-11-15T09:52:46;18.70;99.90
16392;DHT22;8305;-33.882;151.134;2022-11-15T09:55:19;18.70;99.90
16392;DHT22;8305;-33.882;151.134;2022-11-15T09:57:55;18.70;99.90
16392;DHT22;8305;-33.882;151.134;2022-11-15T10:00:33;18.70;99.90
16392;DHT22;8305;-33.882;151.134;2022-11-15T10:03:34;18.60;99.90
16392;DHT22;8305;-33.882;151.134;2022-11-15T10:06:17;18.60;99.90
16392;DHT22;8305;-33.882;151.134;2022-11-15T10:08:57;18.60;99.90
16392;DHT22;8305;-33.882;151.134;2022-11-15T10:11:30;18.60;99.90
16392;DHT22;8305;-33.882;151.134;2022-11-15T10:14:08;18.60;99.90
16392;DHT22;8305;-33.882;151.134;2022-11-15T10:17:18;18.60;99.90
16392;DHT22;8305;-33.882;151.134;2022-11-15T10:20:02;18.60;99.90
16392;DHT22;8305;-33.882;151.134;2022-11-15T10:22:44;18.60;99.90
16392;DHT22;8305;-33.882;151.134;2022-11-15T10:25:22;18.50;99.90
16392;DHT22;8305;-33.882;151.134;2022-11-15T10:27:56;18.50;99.90
16392;DHT22;8305;-33.882;151.134;2022-11-15T10:30:41;18.50;99.90
16392;DHT22;8305;-33.882;151.134;2022-11-15T10:33:23;18.50;99.90
16392;DHT22;8305;-33.882;151.134;2022-11-15T10:36:17;18.50;99.90
16392;DHT22;8305;-33.882;151.134;2022-11-15T10:38:57;18.40;99.90
16392;DHT22;8305;-33.882;151.134;2022-11-15T10:41:37;18.40;99.90
16392;DHT22;8305;-33.882;151.134;2022-11-15T10:44:24;18.40;99.90
16392;DHT22;8305;-33.882;151.134;2022-11-15T10:47:24;18.40;99.90
16392;DHT22;8305;-33.882;151.134;2022-11-15T10:50:04;18.30;99.90
16392;DHT22;8305;-33.882;151.134;2022-11-15T10:52:37;18.30;99.90
16392;DHT22;8305;-33.882;151.134;2022-11-15T10:55:26;18.30;99.90
16392;DHT22;8305;-33.882;151.134;2022-11-15T10:58:03;18.30;99.90
16392;DHT22;8305;-33.882;151.134;2022-11-15T11:00:39;18.30;99.90
16392;DHT22;8305;-33.882;151.134;2022-11-15T11:03:29;18.30;99.90
16392;DHT22;8305;-33.882;151.134;2022-11-15T11:06:12;18.30;99.90
16392;DHT22;8305;-33.882;151.134;2022-11-15T11:08:56;18.20;99.90
16392;DHT22;8305;-33.882;151.134;2022-11-15T11:11:44;18.20;99.90
16392;DHT22;8305;-33.882;151.134;2022-11-15T11:14:21;18.10;99.90
16392;DHT22;8305;-33.882;151.134;2022-11-15T11:16:58;18.00;99.90
16392;DHT22;8305;-33.882;151.134;2022-11-15T11:19:48;18.00;99.90
16392;DHT22;8305;-33.882;151.134;2022-11-15T11:22:25;17.90;99.90
16392;DHT22;8305;-33.882;151.134;2022-11-15T11:25:16;17.80;99.90
16392;DHT22;8305;-33.882;151.134;2022-11-15T11:30:57;17.70;99.90
16392;DHT22;8305;-33.882;151.134;2022-11-15T11:33:37;17.60;99.90
16392;DHT22;8305;-33.882;151.134;2022-11-15T11:36:24;17.60;99.90
16392;DHT22;8305;-33.882;151.134;2022-11-15T11:39:06;17.60;99.90
16392;DHT22;8305;-33.882;151.134;2022-11-15T11:41:50;17.50;99.90
16392;DHT22;8305;-33.882;151.134;2022-11-15T11:44:43;17.50;99.90
16392;DHT22;8305;-33.882;151.134;2022-11-15T11:47:23;17.50;99.90
16392;DHT22;8305;-33.882;151.134;2022-11-15T11:49:59;17.50;99.90
16392;DHT22;8305;-33.882;151.134;2022-11-15T11:52:54;17.50;99.90
16392;DHT22;8305;-33.882;151.134;2022-11-15T11:55:37;17.40;99.90
16392;DHT22;8305;-33.882;151.134;2022-11-15T11:58:15;17.50;99.90
16392;DHT22;8305;-33.882;151.134;2022-11-15T12:00:54;17.40;99.90
16392;DHT22;8305;-33.882;151.134;2022-11-15T12:03:40;17.30;99.90
16392;DHT22;8305;-33.882;151.134;2022-11-15T12:06:23;17.30;99.90
16392;DHT22;8305;-33.882;151.134;2022-11-15T12:09:06;17.30;99.90
16392;DHT22;8305;-33.882;151.134;2022-11-15T12:11:51;17.30;99.90
16392;DHT22;8305;-33.882;151.134;2022-11-15T12:14:28;17.30;99.90
16392;DHT22;8305;-33.882;151.134;2022-11-15T12:17:01;17.20;99.90
16392;DHT22;8305;-33.882;151.134;2022-11-15T12:19:35;17.20;99.90
16392;DHT22;8305;-33.882;151.134;2022-11-15T12:22:13;17.20;99.90
16392;DHT22;8305;-33.882;151.134;2022-11-15T12:25:01;17.20;99.90
16392;DHT22;8305;-33.882;151.134;2022-11-15T12:27:40;17.10;99.90
16392;DHT22;8305;-33.882;151.134;2022-11-15T12:30:22;17.10;99.90
16392;DHT22;8305;-33.882;151.134;2022-11-15T12:32:58;17.10;99.90
16392;DHT22;8305;-33.882;151.134;2022-11-15T12:35:36;17.00;99.90
16392;DHT22;8305;-33.882;151.134;2022-11-15T12:38:11;17.00;99.90
16392;DHT22;8305;-33.882;151.134;2022-11-15T12:41:16;17.00;99.90
16392;DHT22;8305;-33.882;151.134;2022-11-15T12:43:48;17.00;99.90
16392;DHT22;8305;-33.882;151.134;2022-11-15T12:49:24;16.90;99.90
16392;DHT22;8305;-33.882;151.134;2022-11-15T12:52:08;16.90;99.90
16392;DHT22;8305;-33.882;151.134;2022-11-15T12:54:58;16.90;99.90
16392;DHT22;8305;-33.882;151.134;2022-11-15T12:57:38;16.90;99.90
16392;DHT22;8305;-33.882;151.134;2022-11-15T13:03:26;16.80;99.90
16392;DHT22;8305;-33.882;151.134;2022-11-15T13:08:55;16.70;99.90
16392;DHT22;8305;-33.882;151.134;2022-11-15T13:11:50;16.70;99.90
16392;DHT22;8305;-33.882;151.134;2022-11-15T13:14:41;16.60;99.90
16392;DHT22;8305;-33.882;151.134;2022-11-15T13:17:29;16.60;99.90
16392;DHT22;8305;-33.882;151.134;2022-11-15T13:23:07;16.50;99.90
16392;DHT22;8305;-33.882;151.134;2022-11-15T13:26:05;16.40;99.90
16392;DHT22;8305;-33.882;151.134;2022-11-15T13:28:41;16.40;99.90
16392;DHT22;8305;-33.882;151.134;2022-11-15T13:31:40;16.40;99.90
16392;DHT22;8305;-33.882;151.134;2022-11-15T13:34:24;16.30;99.90
16392;DHT22;8305;-33.882;151.134;2022-11-15T13:36:56;16.30;99.90
16392;DHT22;8305;-33.882;151.134;2022-11-15T13:39:29;16.30;99.90
16392;DHT22;8305;-33.882;151.134;2022-11-15T13:42:01;16.20;99.90
16392;DHT22;8305;-33.882;151.134;2022-11-15T13:44:33;16.20;99.90
16392;DHT22;8305;-33.882;151.134;2022-11-15T13:47:20;16.20;99.90
16392;DHT22;8305;-33.882;151.134;2022-11-15T13:49:50;16.10;99.90
16392;DHT22;8305;-33.882;151.134;2022-11-15T13:52:22;16.10;99.90
16392;DHT22;8305;-33.882;151.134;2022-11-15T13:54:59;16.00;99.90
16392;DHT22;8305;-33.882;151.134;2022-11-15T13:57:35;16.00;99.90
16392;DHT22;8305;-33.882;151.134;2022-11-15T14:00:33;15.90;99.90
16392;DHT22;8305;-33.882;151.134;2022-11-15T14:03:18;15.90;99.90
16392;DHT22;8305;-33.882;151.134;2022-11-15T14:06:04;15.90;99.90
16392;DHT22;8305;-33.882;151.134;2022-11-15T14:08:39;15.80;99.90
16392;DHT22;8305;-33.882;151.134;2022-11-15T14:11:13;15.80;99.90
16392;DHT22;8305;-33.882;151.134;2022-11-15T14:14:08;15.80;99.90
16392;DHT22;8305;-33.882;151.134;2022-11-15T14:16:42;15.70;99.90
16392;DHT22;8305;-33.882;151.134;2022-11-15T14:19:39;15.70;99.90
16392;DHT22;8305;-33.882;151.134;2022-11-15T14:22:15;15.60;99.90
16392;DHT22;8305;-33.882;151.134;2022-11-15T14:27:34;15.60;99.90
16392;DHT22;8305;-33.882;151.134;2022-11-15T14:30:05;15.50;99.90
16392;DHT22;8305;-33.882;151.134;2022-11-15T14:32:42;15.50;99.90
16392;DHT22;8305;-33.882;151.134;2022-11-15T14:35:20;15.50;99.90
16392;DHT22;8305;-33.882;151.134;2022-11-15T14:37:51;15.50;99.90
16392;DHT22;8305;-33.882;151.134;2022-11-15T14:40:23;15.40;99.90
16392;DHT22;8305;-33.882;151.134;2022-11-15T14:42:54;15.40;99.90
16392;DHT22;8305;-33.882;151.134;2022-11-15T14:45:26;15.40;99.90
16392;DHT22;8305;-33.882;151.134;2022-11-15T14:47:57;15.40;99.90
16392;DHT22;8305;-33.882;151.134;2022-11-15T14:50:34;15.40;99.90
16392;DHT22;8305;-33.882;151.134;2022-11-15T14:53:05;15.40;99.90
16392;DHT22;8305;-33.882;151.134;2022-11-15T14:55:36;15.40;99.90
16392;DHT22;8305;-33.882;151.134;2022-11-15T14:58:07;15.40;99.90
16392;DHT22;8305;-33.882;151.134;2022-11-15T15:00:40;15.30;99.90
16392;DHT22;8305;-33.882;151.134;2022-11-15T15:03:11;15.30;99.90
16392;DHT22;8305;-33.882;151.134;2022-11-15T15:05:44;15.20;99.90
16392;DHT22;8305;-33.882;151.134;2022-11-15T15:08:15;15.20;99.90
16392;DHT22;8305;-33.882;151.134;2022-11-15T15:10:46;15.20;99.90
16392;DHT22;8305;-33.882;151.134;2022-11-15T15:13:18;15.20;99.90
16392;DHT22;8305;-33.882;151.134;2022-11-15T15:15:50;15.10;99.90
16392;DHT22;8305;-33.882;151.134;2022-11-15T15:18:21;15.10;99.90
16392;DHT22;8305;-33.882;151.134;2022-11-15T15:20:56;15.10;99.90
16392;DHT22;8305;-33.882;151.134;2022-11-15T15:23:30;15.10;99.90
16392;DHT22;8305;-33.882;151.134;2022-11-15T15:26:01;15.10;99.90
16392;DHT22;8305;-33.882;151.134;2022-11-15T15:28:32;15.00;99.90
16392;DHT22;8305;-33.882;151.134;2022-11-15T15:31:03;15.00;99.90
16392;DHT22;8305;-33.882;151.134;2022-11-15T15:33:34;15.00;99.90
16392;DHT22;8305;-33.882;151.134;2022-11-15T15:36:10;15.00;99.90
16392;DHT22;8305;-33.882;151.134;2022-11-15T15:38:41;14.90;99.90
16392;DHT22;8305;-33.882;151.134;2022-11-15T15:41:13;14.90;99.90
16392;DHT22;8305;-33.882;151.134;2022-11-15T15:43:44;14.90;99.90
16392;DHT22;8305;-33.882;151.134;2022-11-15T15:46:16;14.80;99.90
16392;DHT22;8305;-33.882;151.134;2022-11-15T15:48:47;14.80;99.90
16392;DHT22;8305;-33.882;151.134;2022-11-15T15:51:19;14.80;99.90
16392;DHT22;8305;-33.882;151.134;2022-11-15T15:53:50;14.80;99.90
16392;DHT22;8305;-33.882;151.134;2022-11-15T15:56:24;14.70;99.90
16392;DHT22;8305;-33.882;151.134;2022-11-15T15:58:55;14.70;99.90
16392;DHT22;8305;-33.882;151.134;2022-11-15T16:01:26;14.60;99.90
16392;DHT22;8305;-33.882;151.134;2022-11-15T16:03:57;14.60;99.90
16392;DHT22;8305;-33.882;151.134;2022-11-15T16:06:36;14.60;99.90
16392;DHT22;8305;-33.882;151.134;2022-11-15T16:09:12;14.50;99.90
16392;DHT22;8305;-33.882;151.134;2022-11-15T16:11:46;14.50;99.90
16392;DHT22;8305;-33.882;151.134;2022-11-15T16:14:17;14.50;99.90
16392;DHT22;8305;-33.882;151.134;2022-11-15T16:16:47;14.50;99.90